sensor_id;sensor_type;location;lat;lon;timestamp;pressure;altitude;pressure_sealevel;temperature;humidity
66524;BME280;53350;52.210;5.160;2022-08-01T00:01:51;101688.19;;;21.21;77.01
66524;BME280;53350;52.210;5.160;2022-08-01T00:04:17;101672.00;;;21.11;77.50
66524;BME280;53350;52.210;5.160;2022-08-01T00:06:44;101687.28;;;21.22;77.51
66524;BME280;53350;52.210;5.160;2022-08-01T00:09:10;101676.06;;;21.18;77.55
66524;BME280;53350;52.210;5.160;2022-08-01T00:11:37;101689.03;;;21.22;77.13
66524;BME280;53350;52.210;5.160;2022-08-01T00:14:03;101681.22;;;21.20;77.19
66524;BME280;53350;52.210;5.160;2022-08-01T00:16:30;101682.25;;;21.17;77.55
66524;BME280;53350;52.210;5.160;2022-08-01T00:18:58;101680.53;;;21.16;77.73
66524;BME280;53350;52.210;5.160;2022-08-01T00:21:24;101687.47;;;21.17;77.52
66524;BME280;53350;52.210;5.160;2022-08-01T00:23:51;101690.94;;;21.18;78.19
66524;BME280;53350;52.210;5.160;2022-08-01T00:26:17;101692.66;;;21.19;78.24
66524;BME280;53350;52.210;5.160;2022-08-01T00:28:43;101695.13;;;21.22;78.21
66524;BME280;53350;52.210;5.160;2022-08-01T00:31:10;101694.16;;;21.25;78.41
66524;BME280;53350;52.210;5.160;2022-08-01T00:33:36;101693.22;;;21.26;78.19
66524;BME280;53350;52.210;5.160;2022-08-01T00:36:04;101699.34;;;21.26;78.28
66524;BME280;53350;52.210;5.160;2022-08-01T00:38:31;101688.84;;;21.26;78.08
66524;BME280;53350;52.210;5.160;2022-08-01T00:40:57;101693.22;;;21.26;78.29
66524;BME280;53350;52.210;5.160;2022-08-01T00:43:23;101692.38;;;21.25;77.95
66524;BME280;53350;52.210;5.160;2022-08-01T00:45:50;101683.84;;;21.20;78.02
66524;BME280;53350;52.210;5.160;2022-08-01T00:48:16;101685.72;;;21.18;78.26
66524;BME280;53350;52.210;5.160;2022-08-01T00:50:43;101691.09;;;21.15;78.35
66524;BME280;53350;52.210;5.160;2022-08-01T00:53:11;101699.91;;;21.12;78.13
66524;BME280;53350;52.210;5.160;2022-08-01T00:55:38;101700.81;;;21.11;78.83
66524;BME280;53350;52.210;5.160;2022-08-01T00:58:04;101707.06;;;21.09;78.66
66524;BME280;53350;52.210;5.160;2022-08-01T01:00:32;101707.97;;;21.08;79.06
66524;BME280;53350;52.210;5.160;2022-08-01T01:02:59;101701.94;;;21.06;78.75
66524;BME280;53350;52.210;5.160;2022-08-01T01:05:26;101702.00;;;21.04;78.85
66524;BME280;53350;52.210;5.160;2022-08-01T01:07:56;101705.66;;;21.00;78.92
66524;BME280;53350;52.210;5.160;2022-08-01T01:10:32;101703.25;;;20.95;79.41
66524;BME280;53350;52.210;5.160;2022-08-01T01:13:04;101700.75;;;20.92;79.44
66524;BME280;53350;52.210;5.160;2022-08-01T01:15:37;101703.44;;;20.91;79.52
66524;BME280;53350;52.210;5.160;2022-08-01T01:18:09;101706.06;;;20.91;79.89
66524;BME280;53350;52.210;5.160;2022-08-01T01:20:39;101697.38;;;20.90;79.67
66524;BME280;53350;52.210;5.160;2022-08-01T01:23:19;101698.34;;;20.88;79.75
66524;BME280;53350;52.210;5.160;2022-08-01T01:26:00;101691.31;;;20.88;79.85
66524;BME280;53350;52.210;5.160;2022-08-01T01:28:33;101685.31;;;20.86;79.60
66524;BME280;53350;52.210;5.160;2022-08-01T01:31:05;101687.09;;;20.86;79.57
66524;BME280;53350;52.210;5.160;2022-08-01T01:33:34;101688.84;;;20.85;79.93
66524;BME280;53350;52.210;5.160;2022-08-01T01:36:05;101692.31;;;20.86;79.88
66524;BME280;53350;52.210;5.160;2022-08-01T01:38:36;101700.81;;;20.91;80.19
66524;BME280;53350;52.210;5.160;2022-08-01T01:41:08;101690.28;;;20.92;79.88
66524;BME280;53350;52.210;5.160;2022-08-01T01:43:36;101696.38;;;20.93;80.15
66524;BME280;53350;52.210;5.160;2022-08-01T01:46:05;101695.59;;;20.91;80.07
66524;BME280;53350;52.210;5.160;2022-08-01T01:48:34;101698.22;;;20.91;79.55
66524;BME280;53350;52.210;5.160;2022-08-01T01:51:02;101705.28;;;20.89;80.00
66524;BME280;53350;52.210;5.160;2022-08-01T01:53:32;101700.00;;;20.90;80.00
66524;BME280;53350;52.210;5.160;2022-08-01T01:56:00;101702.59;;;20.90;79.97
66524;BME280;53350;52.210;5.160;2022-08-01T01:58:27;101706.00;;;20.92;79.54
66524;BME280;53350;52.210;5.160;2022-08-01T02:00:56;101702.59;;;20.90;79.48
66524;BME280;53350;52.210;5.160;2022-08-01T02:03:26;101701.72;;;20.90;79.56
66524;BME280;53350;52.210;5.160;2022-08-01T02:05:53;101700.00;;;20.90;80.11
66524;BME280;53350;52.210;5.160;2022-08-01T02:08:21;101704.34;;;20.90;80.07
66524;BME280;53350;52.210;5.160;2022-08-01T02:10:50;101706.97;;;20.90;79.63
66524;BME280;53350;52.210;5.160;2022-08-01T02:13:32;101705.34;;;20.87;80.07
66524;BME280;53350;52.210;5.160;2022-08-01T02:16:00;101704.69;;;20.82;80.23
66524;BME280;53350;52.210;5.160;2022-08-01T02:18:29;101705.47;;;20.84;80.31
66524;BME280;53350;52.210;5.160;2022-08-01T02:20:57;101709.00;;;20.83;80.15
66524;BME280;53350;52.210;5.160;2022-08-01T02:23:28;101712.53;;;20.82;79.89
66524;BME280;53350;52.210;5.160;2022-08-01T02:25:58;101712.59;;;20.80;80.32
66524;BME280;53350;52.210;5.160;2022-08-01T02:28:29;101708.34;;;20.78;80.49
66524;BME280;53350;52.210;5.160;2022-08-01T02:31:01;101704.94;;;20.76;80.20
66524;BME280;53350;52.210;5.160;2022-08-01T02:33:34;101713.72;;;20.75;80.43
66524;BME280;53350;52.210;5.160;2022-08-01T02:36:02;101712.00;;;20.74;79.97
66524;BME280;53350;52.210;5.160;2022-08-01T02:38:31;101715.47;;;20.74;80.13
66524;BME280;53350;52.210;5.160;2022-08-01T02:41:04;101718.94;;;20.75;80.01
66524;BME280;53350;52.210;5.160;2022-08-01T02:43:33;101716.47;;;20.72;79.81
66524;BME280;53350;52.210;5.160;2022-08-01T02:46:02;101718.09;;;20.74;79.78
66524;BME280;53350;52.210;5.160;2022-08-01T02:48:34;101712.88;;;20.74;79.81
66524;BME280;53350;52.210;5.160;2022-08-01T02:51:03;101713.72;;;20.75;79.73
66524;BME280;53350;52.210;5.160;2022-08-01T02:53:32;101709.22;;;20.78;79.76
66524;BME280;53350;52.210;5.160;2022-08-01T02:56:03;101715.22;;;20.80;79.29
66524;BME280;53350;52.210;5.160;2022-08-01T02:58:31;101703.84;;;20.81;79.18
66524;BME280;53350;52.210;5.160;2022-08-01T03:01:00;101709.84;;;20.83;78.93
66524;BME280;53350;52.210;5.160;2022-08-01T03:03:28;101698.47;;;20.84;79.08
66524;BME280;53350;52.210;5.160;2022-08-01T03:05:57;101703.66;;;20.86;78.78
66524;BME280;53350;52.210;5.160;2022-08-01T03:08:24;101699.25;;;20.87;78.67
66524;BME280;53350;52.210;5.160;2022-08-01T03:10:52;101700.97;;;20.88;78.88
66524;BME280;53350;52.210;5.160;2022-08-01T03:13:21;101709.66;;;20.88;78.76
66524;BME280;53350;52.210;5.160;2022-08-01T03:15:49;101709.72;;;20.87;78.59
66524;BME280;53350;52.210;5.160;2022-08-01T03:18:16;101712.34;;;20.87;78.32
66524;BME280;53350;52.210;5.160;2022-08-01T03:20:44;101717.56;;;20.87;78.64
66524;BME280;53350;52.210;5.160;2022-08-01T03:23:14;101718.53;;;20.86;78.24
66524;BME280;53350;52.210;5.160;2022-08-01T03:25:43;101718.53;;;20.86;78.29
66524;BME280;53350;52.210;5.160;2022-08-01T03:28:13;101722.19;;;20.81;78.05
66524;BME280;53350;52.210;5.160;2022-08-01T03:30:40;101722.09;;;20.83;78.01
66524;BME280;53350;52.210;5.160;2022-08-01T03:33:08;101716.00;;;20.82;78.08
66524;BME280;53350;52.210;5.160;2022-08-01T03:35:39;101723.00;;;20.82;77.74
66524;BME280;53350;52.210;5.160;2022-08-01T03:38:09;101726.53;;;20.81;77.89
66524;BME280;53350;52.210;5.160;2022-08-01T03:40:43;101727.47;;;20.80;77.69
66524;BME280;53350;52.210;5.160;2022-08-01T03:43:15;101724.84;;;20.80;77.55
66524;BME280;53350;52.210;5.160;2022-08-01T03:45:46;101731.84;;;20.79;77.78
66524;BME280;53350;52.210;5.160;2022-08-01T03:48:16;101725.03;;;20.75;77.70
66524;BME280;53350;52.210;5.160;2022-08-01T03:50:47;101728.56;;;20.74;78.17
66524;BME280;53350;52.210;5.160;2022-08-01T03:53:15;101731.25;;;20.73;78.07
66524;BME280;53350;52.210;5.160;2022-08-01T03:55:46;101729.53;;;20.72;77.97
66524;BME280;53350;52.210;5.160;2022-08-01T03:58:13;101722.53;;;20.72;78.37
66524;BME280;53350;52.210;5.160;2022-08-01T04:00:40;101725.22;;;20.71;78.35
66524;BME280;53350;52.210;5.160;2022-08-01T04:03:08;101726.19;;;20.68;78.34
66524;BME280;53350;52.210;5.160;2022-08-01T04:05:35;101726.28;;;20.65;78.46
66524;BME280;53350;52.210;5.160;2022-08-01T04:08:02;101728.19;;;20.61;78.30
66524;BME280;53350;52.210;5.160;2022-08-01T04:10:29;101724.81;;;20.58;78.69
66524;BME280;53350;52.210;5.160;2022-08-01T04:12:57;101727.44;;;20.58;78.46
66524;BME280;53350;52.210;5.160;2022-08-01T04:15:23;101731.91;;;20.56;78.08
66524;BME280;53350;52.210;5.160;2022-08-01T04:17:50;101739.06;;;20.50;78.66
66524;BME280;53350;52.210;5.160;2022-08-01T04:20:16;101735.69;;;20.48;78.42
66524;BME280;53350;52.210;5.160;2022-08-01T04:22:43;101738.34;;;20.47;78.93
66524;BME280;53350;52.210;5.160;2022-08-01T04:25:13;101741.75;;;20.49;78.27
66524;BME280;53350;52.210;5.160;2022-08-01T04:27:43;101735.63;;;20.50;78.48
66524;BME280;53350;52.210;5.160;2022-08-01T04:30:14;101735.50;;;20.53;78.93
66524;BME280;53350;52.210;5.160;2022-08-01T04:32:43;101736.44;;;20.50;78.58
66524;BME280;53350;52.210;5.160;2022-08-01T04:35:12;101735.69;;;20.48;78.27
66524;BME280;53350;52.210;5.160;2022-08-01T04:37:42;101740.34;;;20.40;78.53
66524;BME280;53350;52.210;5.160;2022-08-01T04:40:11;101746.72;;;20.33;78.44
66524;BME280;53350;52.210;5.160;2022-08-01T04:42:38;101754.59;;;20.33;79.00
66524;BME280;53350;52.210;5.160;2022-08-01T04:45:06;101749.53;;;20.28;79.20
66524;BME280;53350;52.210;5.160;2022-08-01T04:47:35;101753.94;;;20.28;78.99
66524;BME280;53350;52.210;5.160;2022-08-01T04:50:04;101765.28;;;20.27;78.90
66524;BME280;53350;52.210;5.160;2022-08-01T04:52:33;101764.50;;;20.25;79.07
66524;BME280;53350;52.210;5.160;2022-08-01T04:54:59;101770.53;;;20.27;79.58
66524;BME280;53350;52.210;5.160;2022-08-01T04:57:26;101761.66;;;20.31;79.44
66524;BME280;53350;52.210;5.160;2022-08-01T04:59:52;101774.56;;;20.36;79.59
66524;BME280;53350;52.210;5.160;2022-08-01T05:02:22;101771.81;;;20.39;79.43
66524;BME280;53350;52.210;5.160;2022-08-01T05:04:50;101770.06;;;20.39;79.22
66524;BME280;53350;52.210;5.160;2022-08-01T05:07:16;101769.94;;;20.42;79.38
66524;BME280;53350;52.210;5.160;2022-08-01T05:09:43;101768.09;;;20.44;79.13
66524;BME280;53350;52.210;5.160;2022-08-01T05:12:11;101758.47;;;20.45;78.54
66524;BME280;53350;52.210;5.160;2022-08-01T05:14:37;101773.16;;;20.49;78.91
66524;BME280;53350;52.210;5.160;2022-08-01T05:17:06;101777.56;;;20.48;78.36
66524;BME280;53350;52.210;5.160;2022-08-01T05:19:33;101773.47;;;20.41;78.71
66524;BME280;53350;52.210;5.160;2022-08-01T05:22:03;101767.47;;;20.38;78.69
66524;BME280;53350;52.210;5.160;2022-08-01T05:24:30;101773.66;;;20.37;79.09
66524;BME280;53350;52.210;5.160;2022-08-01T05:26:57;101773.72;;;20.35;79.10
66524;BME280;53350;52.210;5.160;2022-08-01T05:29:24;101780.69;;;20.35;79.27
66524;BME280;53350;52.210;5.160;2022-08-01T05:31:51;101785.81;;;20.38;79.28
66524;BME280;53350;52.210;5.160;2022-08-01T05:34:19;101781.38;;;20.40;79.57
66524;BME280;53350;52.210;5.160;2022-08-01T05:36:46;101781.31;;;20.41;79.19
66524;BME280;53350;52.210;5.160;2022-08-01T05:39:14;101776.88;;;20.43;79.58
66524;BME280;53350;52.210;5.160;2022-08-01T05:41:41;101784.59;;;20.46;79.13
66524;BME280;53350;52.210;5.160;2022-08-01T05:44:10;101780.22;;;20.47;79.47
66524;BME280;53350;52.210;5.160;2022-08-01T05:46:37;101787.13;;;20.49;79.29
66524;BME280;53350;52.210;5.160;2022-08-01T05:49:04;101784.44;;;20.51;79.50
66524;BME280;53350;52.210;5.160;2022-08-01T05:51:31;101787.06;;;20.51;79.39
66524;BME280;53350;52.210;5.160;2022-08-01T05:53:58;101784.50;;;20.49;79.45
66524;BME280;53350;52.210;5.160;2022-08-01T05:56:26;101780.22;;;20.47;79.26
66524;BME280;53350;52.210;5.160;2022-08-01T05:58:52;101788.81;;;20.50;79.41
66524;BME280;53350;52.210;5.160;2022-08-01T06:01:19;101794.03;;;20.50;79.50
66524;BME280;53350;52.210;5.160;2022-08-01T06:03:45;101796.59;;;20.52;79.42
66524;BME280;53350;52.210;5.160;2022-08-01T06:06:12;101797.41;;;20.54;79.76
66524;BME280;53350;52.210;5.160;2022-08-01T06:08:39;101792.09;;;20.56;79.49
66524;BME280;53350;52.210;5.160;2022-08-01T06:11:06;101800.72;;;20.58;79.15
66524;BME280;53350;52.210;5.160;2022-08-01T06:13:34;101799.13;;;20.55;79.03
66524;BME280;53350;52.210;5.160;2022-08-01T06:16:00;101802.75;;;20.51;79.29
66524;BME280;53350;52.210;5.160;2022-08-01T06:18:27;101806.41;;;20.47;79.19
66524;BME280;53350;52.210;5.160;2022-08-01T06:20:53;101806.53;;;20.44;79.10
66524;BME280;53350;52.210;5.160;2022-08-01T06:23:20;101809.31;;;20.39;79.29
66524;BME280;53350;52.210;5.160;2022-08-01T06:25:46;101813.03;;;20.33;79.22
66524;BME280;53350;52.210;5.160;2022-08-01T06:28:13;101816.09;;;20.21;79.05
66524;BME280;53350;52.210;5.160;2022-08-01T06:30:41;101824.44;;;20.07;79.42
66524;BME280;53350;52.210;5.160;2022-08-01T06:33:07;101812.28;;;20.06;79.46
66524;BME280;53350;52.210;5.160;2022-08-01T06:35:34;101821.09;;;20.04;79.25
66524;BME280;53350;52.210;5.160;2022-08-01T06:38:01;101817.69;;;20.02;79.32
66524;BME280;53350;52.210;5.160;2022-08-01T06:40:28;101817.56;;;20.05;79.09
66524;BME280;53350;52.210;5.160;2022-08-01T06:42:54;101826.25;;;20.05;79.28
66524;BME280;53350;52.210;5.160;2022-08-01T06:45:21;101827.09;;;20.06;79.64
66524;BME280;53350;52.210;5.160;2022-08-01T06:47:51;101834.09;;;20.05;79.07
66524;BME280;53350;52.210;5.160;2022-08-01T06:50:18;101824.78;;;19.98;78.97
66524;BME280;53350;52.210;5.160;2022-08-01T06:52:44;101830.00;;;19.98;78.86
66524;BME280;53350;52.210;5.160;2022-08-01T06:55:11;101840.53;;;19.96;78.71
66524;BME280;53350;52.210;5.160;2022-08-01T06:57:45;101842.41;;;19.93;78.33
66524;BME280;53350;52.210;5.160;2022-08-01T07:00:13;101845.97;;;19.90;78.23
66524;BME280;53350;52.210;5.160;2022-08-01T07:02:41;101841.06;;;19.81;78.24
66524;BME280;53350;52.210;5.160;2022-08-01T07:05:09;101846.59;;;19.72;77.98
66524;BME280;53350;52.210;5.160;2022-08-01T07:07:35;101851.16;;;19.65;78.19
66524;BME280;53350;52.210;5.160;2022-08-01T07:10:02;101848.66;;;19.62;78.20
66524;BME280;53350;52.210;5.160;2022-08-01T07:12:29;101853.16;;;19.58;78.46
66524;BME280;53350;52.210;5.160;2022-08-01T07:14:55;101853.81;;;19.63;78.27
66524;BME280;53350;52.210;5.160;2022-08-01T07:17:22;101854.69;;;19.64;77.84
66524;BME280;53350;52.210;5.160;2022-08-01T07:19:48;101860.78;;;19.64;77.54
66524;BME280;53350;52.210;5.160;2022-08-01T07:22:16;101865.94;;;19.66;77.18
66524;BME280;53350;52.210;5.160;2022-08-01T07:24:42;101864.94;;;19.70;76.63
66524;BME280;53350;52.210;5.160;2022-08-01T07:27:09;101870.91;;;19.74;76.00
66524;BME280;53350;52.210;5.160;2022-08-01T07:29:35;101864.59;;;19.81;75.61
66524;BME280;53350;52.210;5.160;2022-08-01T07:32:02;101865.28;;;19.86;75.08
66524;BME280;53350;52.210;5.160;2022-08-01T07:34:28;101861.66;;;19.90;74.78
66524;BME280;53350;52.210;5.160;2022-08-01T07:36:55;101870.03;;;20.00;73.39
66524;BME280;53350;52.210;5.160;2022-08-01T07:39:23;101873.41;;;20.04;73.32
66524;BME280;53350;52.210;5.160;2022-08-01T07:41:49;101867.22;;;20.06;73.04
66524;BME280;53350;52.210;5.160;2022-08-01T07:44:15;101879.34;;;20.07;72.87
66524;BME280;53350;52.210;5.160;2022-08-01T07:46:42;101868.69;;;20.13;72.80
66524;BME280;53350;52.210;5.160;2022-08-01T07:49:08;101871.81;;;20.23;72.43
66524;BME280;53350;52.210;5.160;2022-08-01T07:51:35;101874.47;;;20.22;71.43
66524;BME280;53350;52.210;5.160;2022-08-01T07:54:01;101880.59;;;20.22;71.70
66524;BME280;53350;52.210;5.160;2022-08-01T07:56:29;101878.59;;;20.29;71.78
66524;BME280;53350;52.210;5.160;2022-08-01T07:58:55;101880.75;;;20.41;72.00
66524;BME280;53350;52.210;5.160;2022-08-01T08:01:22;101882.31;;;20.47;70.10
66524;BME280;53350;52.210;5.160;2022-08-01T08:03:48;101888.38;;;20.47;69.46
66524;BME280;53350;52.210;5.160;2022-08-01T08:06:15;101890.66;;;20.57;69.07
66524;BME280;53350;52.210;5.160;2022-08-01T08:08:41;101890.31;;;20.66;68.66
66524;BME280;53350;52.210;5.160;2022-08-01T08:11:07;101892.09;;;20.65;68.77
66524;BME280;53350;52.210;5.160;2022-08-01T08:13:35;101892.84;;;20.69;67.75
66524;BME280;53350;52.210;5.160;2022-08-01T08:16:02;101893.59;;;20.73;67.05
66524;BME280;53350;52.210;5.160;2022-08-01T08:18:28;101885.81;;;20.70;66.72
66524;BME280;53350;52.210;5.160;2022-08-01T08:20:55;101890.91;;;20.74;66.48
66524;BME280;53350;52.210;5.160;2022-08-01T08:23:21;101894.00;;;20.84;66.50
66524;BME280;53350;52.210;5.160;2022-08-01T08:26:05;101903.28;;;20.93;65.72
66524;BME280;53350;52.210;5.160;2022-08-01T08:28:31;101903.19;;;20.96;65.37
66524;BME280;53350;52.210;5.160;2022-08-01T08:30:59;101906.53;;;20.99;65.58
66524;BME280;53350;52.210;5.160;2022-08-01T08:33:25;101899.28;;;21.06;64.36
66524;BME280;53350;52.210;5.160;2022-08-01T08:35:53;101907.19;;;21.05;65.38
66524;BME280;53350;52.210;5.160;2022-08-01T08:38:20;101900.06;;;21.08;65.27
66524;BME280;53350;52.210;5.160;2022-08-01T08:40:46;101908.47;;;21.16;64.19
66524;BME280;53350;52.210;5.160;2022-08-01T08:43:14;101904.88;;;21.19;62.88
66524;BME280;53350;52.210;5.160;2022-08-01T08:45:42;101909.25;;;21.18;62.86
66524;BME280;53350;52.210;5.160;2022-08-01T08:48:12;101918.00;;;21.19;62.30
66524;BME280;53350;52.210;5.160;2022-08-01T08:50:40;101911.09;;;21.16;63.05
66524;BME280;53350;52.210;5.160;2022-08-01T08:53:09;101911.69;;;21.23;62.03
66524;BME280;53350;52.210;5.160;2022-08-01T08:55:35;101921.00;;;21.30;62.48
66524;BME280;53350;52.210;5.160;2022-08-01T08:58:02;101921.44;;;21.42;62.11
66524;BME280;53350;52.210;5.160;2022-08-01T09:00:31;101929.16;;;21.45;61.98
66524;BME280;53350;52.210;5.160;2022-08-01T09:02:57;101927.28;;;21.48;60.52
66524;BME280;53350;52.210;5.160;2022-08-01T09:05:25;101914.75;;;21.57;59.82
66524;BME280;53350;52.210;5.160;2022-08-01T09:07:52;101922.88;;;21.49;60.20
66524;BME280;53350;52.210;5.160;2022-08-01T09:10:18;101926.03;;;21.79;60.05
66524;BME280;53350;52.210;5.160;2022-08-01T09:13:06;101929.53;;;21.80;57.98
66524;BME280;53350;52.210;5.160;2022-08-01T09:15:42;101943.50;;;21.80;57.30
66524;BME280;53350;52.210;5.160;2022-08-01T09:18:25;101937.44;;;21.78;56.89
66524;BME280;53350;52.210;5.160;2022-08-01T09:21:07;101934.66;;;21.83;55.96
66524;BME280;53350;52.210;5.160;2022-08-01T09:23:34;101941.78;;;22.00;55.93
66524;BME280;53350;52.210;5.160;2022-08-01T09:26:04;101934.63;;;22.03;55.76
66524;BME280;53350;52.210;5.160;2022-08-01T09:28:30;101940.22;;;22.16;56.20
66524;BME280;53350;52.210;5.160;2022-08-01T09:30:57;101940.84;;;22.21;56.76
66524;BME280;53350;52.210;5.160;2022-08-01T09:33:24;101941.72;;;22.22;56.57
66524;BME280;53350;52.210;5.160;2022-08-01T09:35:56;101943.22;;;22.28;57.55
66524;BME280;53350;52.210;5.160;2022-08-01T09:38:24;101950.78;;;22.35;56.78
66524;BME280;53350;52.210;5.160;2022-08-01T09:40:53;101950.50;;;22.42;57.24
66524;BME280;53350;52.210;5.160;2022-08-01T09:43:22;101961.38;;;22.53;57.17
66524;BME280;53350;52.210;5.160;2022-08-01T09:45:49;101954.22;;;22.56;56.92
66524;BME280;53350;52.210;5.160;2022-08-01T09:48:16;101960.41;;;22.55;56.83
66524;BME280;53350;52.210;5.160;2022-08-01T09:50:44;101958.69;;;22.54;56.55
66524;BME280;53350;52.210;5.160;2022-08-01T09:53:13;101951.47;;;22.60;56.49
66524;BME280;53350;52.210;5.160;2022-08-01T09:55:40;101961.59;;;22.67;56.49
66524;BME280;53350;52.210;5.160;2022-08-01T09:58:07;101953.00;;;22.64;56.16
66524;BME280;53350;52.210;5.160;2022-08-01T10:00:34;101960.13;;;22.62;55.29
66524;BME280;53350;52.210;5.160;2022-08-01T10:03:19;101944.72;;;22.54;55.21
66524;BME280;53350;52.210;5.160;2022-08-01T10:05:46;101964.16;;;22.69;55.11
66524;BME280;53350;52.210;5.160;2022-08-01T10:08:19;101956.06;;;22.73;55.47
66524;BME280;53350;52.210;5.160;2022-08-01T10:11:11;101957.00;;;22.91;54.96
66524;BME280;53350;52.210;5.160;2022-08-01T10:13:57;101960.84;;;23.03;54.85
66524;BME280;53350;52.210;5.160;2022-08-01T10:16:42;101959.19;;;23.01;54.27
66524;BME280;53350;52.210;5.160;2022-08-01T10:19:09;101952.53;;;22.93;54.56
66524;BME280;53350;52.210;5.160;2022-08-01T10:21:38;101961.31;;;22.92;55.15
66524;BME280;53350;52.210;5.160;2022-08-01T10:24:19;101960.91;;;22.83;55.11
66524;BME280;53350;52.210;5.160;2022-08-01T10:26:56;101961.00;;;22.81;54.86
66524;BME280;53350;52.210;5.160;2022-08-01T10:29:33;101950.03;;;22.90;55.10
66524;BME280;53350;52.210;5.160;2022-08-01T10:32:09;101964.03;;;22.91;53.78
66524;BME280;53350;52.210;5.160;2022-08-01T10:34:40;101963.53;;;23.02;53.36
66524;BME280;53350;52.210;5.160;2022-08-01T10:37:12;101963.59;;;23.00;54.29
66524;BME280;53350;52.210;5.160;2022-08-01T10:39:43;101966.16;;;23.02;53.37
66524;BME280;53350;52.210;5.160;2022-08-01T10:42:14;101959.19;;;23.01;52.91
66524;BME280;53350;52.210;5.160;2022-08-01T10:44:47;101956.41;;;23.04;53.38
66524;BME280;53350;52.210;5.160;2022-08-01T10:47:35;101961.38;;;23.12;53.46
66524;BME280;53350;52.210;5.160;2022-08-01T10:50:13;101970.78;;;23.16;53.14
66524;BME280;53350;52.210;5.160;2022-08-01T10:53:11;101969.44;;;23.26;50.52
66524;BME280;53350;52.210;5.160;2022-08-01T10:56:08;101968.28;;;23.32;48.75
66524;BME280;53350;52.210;5.160;2022-08-01T10:59:00;101964.94;;;23.28;50.15
66524;BME280;53350;52.210;5.160;2022-08-01T11:01:37;101970.91;;;23.32;50.21
66524;BME280;53350;52.210;5.160;2022-08-01T11:04:41;101966.44;;;23.34;50.91
66524;BME280;53350;52.210;5.160;2022-08-01T11:07:45;101970.47;;;23.41;49.63
66524;BME280;53350;52.210;5.160;2022-08-01T11:10:38;101964.97;;;23.46;48.18
66524;BME280;53350;52.210;5.160;2022-08-01T11:13:13;101983.69;;;23.39;47.24
66524;BME280;53350;52.210;5.160;2022-08-01T11:15:41;101981.56;;;23.29;45.45
66524;BME280;53350;52.210;5.160;2022-08-01T11:18:34;101978.66;;;23.35;46.51
66524;BME280;53350;52.210;5.160;2022-08-01T11:21:03;101987.97;;;23.42;46.61
66524;BME280;53350;52.210;5.160;2022-08-01T11:23:55;101987.81;;;23.45;46.99
66524;BME280;53350;52.210;5.160;2022-08-01T11:26:25;101989.38;;;23.49;45.99
66524;BME280;53350;52.210;5.160;2022-08-01T11:29:20;101982.31;;;23.50;45.55
66524;BME280;53350;52.210;5.160;2022-08-01T11:32:26;101989.81;;;23.57;45.91
66524;BME280;53350;52.210;5.160;2022-08-01T11:34:59;101981.84;;;23.59;43.13
66524;BME280;53350;52.210;5.160;2022-08-01T11:37:28;101984.25;;;23.64;43.54
66524;BME280;53350;52.210;5.160;2022-08-01T11:40:20;101979.78;;;23.66;44.22
66524;BME280;53350;52.210;5.160;2022-08-01T11:43:16;101981.41;;;23.68;44.71
66524;BME280;53350;52.210;5.160;2022-08-01T11:45:55;101973.97;;;23.76;44.04
66524;BME280;53350;52.210;5.160;2022-08-01T11:48:32;101975.13;;;23.90;44.22
66524;BME280;53350;52.210;5.160;2022-08-01T11:50:59;101978.97;;;24.00;43.59
66524;BME280;53350;52.210;5.160;2022-08-01T11:53:46;101986.63;;;24.05;43.35
66524;BME280;53350;52.210;5.160;2022-08-01T11:56:24;101976.88;;;24.07;43.61
66524;BME280;53350;52.210;5.160;2022-08-01T11:58:58;101987.03;;;24.15;43.36
66524;BME280;53350;52.210;5.160;2022-08-01T12:01:49;101974.47;;;24.20;43.78
66524;BME280;53350;52.210;5.160;2022-08-01T12:04:21;101981.28;;;24.24;41.53
66524;BME280;53350;52.210;5.160;2022-08-01T12:06:49;101976.94;;;24.23;41.78
66524;BME280;53350;52.210;5.160;2022-08-01T12:09:18;101984.00;;;24.22;41.56
66524;BME280;53350;52.210;5.160;2022-08-01T12:11:52;101992.50;;;24.10;41.36
66524;BME280;53350;52.210;5.160;2022-08-01T12:14:22;101985.31;;;24.13;41.40
66524;BME280;53350;52.210;5.160;2022-08-01T12:16:56;101976.50;;;24.15;40.74
66524;BME280;53350;52.210;5.160;2022-08-01T12:19:25;101976.56;;;24.13;41.90
66524;BME280;53350;52.210;5.160;2022-08-01T12:22:13;101980.06;;;24.13;42.72
66524;BME280;53350;52.210;5.160;2022-08-01T12:24:42;101981.06;;;24.11;42.62
66524;BME280;53350;52.210;5.160;2022-08-01T12:27:23;101979.72;;;24.20;40.41
66524;BME280;53350;52.210;5.160;2022-08-01T12:30:12;101984.75;;;24.24;41.20
66524;BME280;53350;52.210;5.160;2022-08-01T12:32:46;101984.06;;;24.21;41.40
66524;BME280;53350;52.210;5.160;2022-08-01T12:35:20;101986.31;;;24.11;41.05
66524;BME280;53350;52.210;5.160;2022-08-01T12:37:58;101989.25;;;24.22;39.93
66524;BME280;53350;52.210;5.160;2022-08-01T12:40:44;101983.59;;;24.12;40.07
66524;BME280;53350;52.210;5.160;2022-08-01T12:43:28;101987.53;;;24.21;39.64
66524;BME280;53350;52.210;5.160;2022-08-01T12:46:04;101985.88;;;24.20;39.45
66524;BME280;53350;52.210;5.160;2022-08-01T12:48:46;101985.47;;;24.28;39.93
66524;BME280;53350;52.210;5.160;2022-08-01T12:51:14;101987.59;;;24.37;39.02
66524;BME280;53350;52.210;5.160;2022-08-01T12:53:47;101993.91;;;24.35;38.60
66524;BME280;53350;52.210;5.160;2022-08-01T12:56:13;101999.47;;;24.28;39.03
66524;BME280;53350;52.210;5.160;2022-08-01T12:58:51;101986.47;;;24.25;39.07
66524;BME280;53350;52.210;5.160;2022-08-01T13:01:25;101980.94;;;24.30;38.94
66524;BME280;53350;52.210;5.160;2022-08-01T13:04:22;101991.31;;;24.33;38.39
66524;BME280;53350;52.210;5.160;2022-08-01T13:07:01;101987.50;;;24.39;36.79
66524;BME280;53350;52.210;5.160;2022-08-01T13:09:53;101983.13;;;24.39;35.74